createdAt,value
2019-04-28T00:02:13.495Z,4.30
2019-04-28T00:04:41.951Z,4.05
2019-04-28T00:07:11.951Z,5.62
2019-04-28T00:09:41.503Z,4.40
2019-04-28T00:12:11.456Z,6.60
2019-04-28T00:14:41.806Z,6.12
2019-04-28T00:17:11.066Z,4.12
2019-04-28T00:19:40.864Z,5.83
2019-04-28T00:22:26.610Z,5.45
2019-04-28T00:24:59.101Z,4.80
2019-04-28T00:27:27.555Z,6.45
2019-04-28T00:29:56.076Z,4.97
2019-04-28T00:32:24.530Z,4.33
2019-04-28T00:34:52.987Z,4.33
2019-04-28T00:37:29.105Z,4.55
2019-04-28T00:39:57.631Z,4.22
2019-04-28T00:42:26.078Z,4.85
2019-04-28T00:44:54.578Z,5.22
2019-04-28T00:47:23.062Z,4.45
2019-04-28T00:49:52.033Z,4.85
2019-04-28T00:52:22.188Z,6.12
2019-04-28T00:54:52.601Z,5.33
2019-04-28T00:57:21.253Z,4.03
2019-04-28T00:59:57.458Z,4.78
2019-04-28T01:02:25.083Z,5.28
2019-04-28T01:04:53.597Z,4.12
2019-04-28T01:07:22.287Z,6.37
2019-04-28T01:09:51.677Z,5.67
2019-04-28T01:12:21.239Z,5.70
2019-04-28T01:14:53.795Z,5.75
2019-04-28T01:17:34.358Z,5.00
2019-04-28T01:20:07.444Z,6.30
2019-04-28T01:22:36.031Z,4.62
2019-04-28T01:25:06.735Z,5.00
2019-04-28T01:27:40.314Z,4.92
2019-04-28T01:30:11.424Z,6.65
2019-04-28T01:32:44.404Z,5.55
2019-04-28T01:35:13.092Z,5.03
2019-04-28T01:37:41.603Z,5.78
2019-04-28T01:40:10.203Z,6.15
2019-04-28T01:42:38.723Z,6.72
2019-04-28T01:45:07.383Z,5.83
2019-04-28T01:47:35.836Z,6.85
2019-04-28T01:50:05.121Z,5.42
2019-04-28T01:52:34.018Z,6.72
2019-04-28T01:55:02.540Z,7.17
2019-04-28T01:57:30.996Z,6.50
2019-04-28T01:59:59.981Z,6.30
2019-04-28T02:02:29.986Z,8.23
2019-04-28T02:04:59.973Z,6.45
2019-04-28T02:07:32.637Z,8.13
2019-04-28T02:10:00.559Z,6.05
2019-04-28T02:12:30.398Z,8.58
2019-04-28T02:15:01.075Z,5.75
2019-04-28T02:17:30.774Z,7.33
2019-04-28T02:20:00.655Z,8.40
2019-04-28T02:22:31.905Z,9.08
2019-04-28T02:25:00.423Z,6.72
2019-04-28T02:27:30.196Z,6.58
2019-04-28T02:30:00.089Z,7.28
2019-04-28T02:32:30.901Z,7.92
2019-04-28T02:35:01.313Z,7.20
2019-04-28T02:37:30.521Z,8.28
2019-04-28T02:40:02.822Z,8.40
2019-04-28T02:42:30.967Z,8.95
2019-04-28T02:45:00.789Z,8.80
2019-04-28T02:47:33.634Z,9.03
2019-04-28T02:52:33.520Z,9.58
2019-04-28T02:55:03.007Z,10.68
2019-04-28T02:57:32.415Z,11.43
2019-04-28T03:00:00.868Z,10.82
2019-04-28T03:02:31.987Z,13.75
2019-04-28T03:05:00.340Z,14.68
2019-04-28T03:07:31.254Z,17.48
2019-04-28T03:10:03.104Z,14.23
2019-04-28T03:12:31.628Z,15.25
2019-04-28T03:15:00.617Z,15.45
2019-04-28T03:17:31.093Z,14.40
2019-04-28T03:20:01.033Z,21.07
2019-04-28T03:22:31.271Z,15.60
2019-04-28T03:25:01.828Z,13.43
2019-04-28T03:27:40.340Z,14.18
2019-04-28T03:30:23.214Z,15.08
2019-04-28T03:33:00.103Z,13.78
2019-04-28T03:35:23.866Z,15.00
2019-04-28T03:37:52.459Z,13.72
2019-04-28T03:40:21.223Z,17.42
2019-04-28T03:42:51.316Z,19.23
2019-04-28T03:45:21.785Z,18.05
2019-04-28T03:47:51.018Z,15.15
2019-04-28T03:50:20.240Z,15.50
2019-04-28T03:52:51.163Z,17.05
2019-04-28T03:55:21.306Z,17.70
2019-04-28T03:57:51.005Z,16.48
2019-04-28T04:02:50.752Z,20.15
2019-04-28T04:05:20.811Z,18.75
2019-04-28T04:07:50.678Z,21.20
2019-04-28T04:10:33.699Z,20.77
2019-04-28T04:13:23.200Z,21.57
2019-04-28T04:16:10.402Z,22.30
2019-04-28T04:18:52.983Z,18.65
2019-04-28T04:21:21.385Z,21.60
2019-04-28T04:23:50.945Z,18.65
2019-04-28T04:26:21.279Z,22.00
2019-04-28T04:28:51.503Z,22.40
2019-04-28T04:31:20.151Z,17.42
2019-04-28T04:33:50.517Z,21.45
2019-04-28T04:36:21.186Z,22.30
2019-04-28T04:38:51.401Z,20.25
2019-04-28T04:41:20.202Z,15.30
2019-04-28T04:43:51.307Z,17.87
2019-04-28T04:46:25.786Z,18.52
2019-04-28T04:48:54.513Z,20.20
2019-04-28T04:51:23.032Z,15.40
2019-04-28T04:53:51.772Z,19.15
2019-04-28T04:56:21.635Z,16.93
2019-04-28T04:58:50.782Z,14.83
2019-04-28T05:01:21.040Z,15.08
2019-04-28T05:04:03.136Z,16.00
2019-04-28T05:06:35.589Z,13.72
2019-04-28T05:09:10.714Z,15.50
2019-04-28T05:11:40.177Z,13.90
2019-04-28T05:14:11.620Z,14.93
2019-04-28T05:16:39.974Z,15.83
2019-04-28T05:19:10.192Z,16.65
2019-04-28T05:21:40.119Z,14.80
2019-04-28T05:24:17.497Z,12.95
2019-04-28T05:26:49.099Z,18.05
2019-04-28T05:29:21.769Z,13.35
2019-04-28T05:31:50.213Z,13.13
2019-04-28T05:34:20.343Z,16.75
2019-04-28T05:36:50.335Z,11.63
2019-04-28T05:39:19.634Z,11.45
2019-04-28T05:41:50.298Z,12.60
2019-04-28T05:44:20.157Z,14.10
2019-04-28T05:49:20.031Z,8.38
2019-04-28T05:52:00.666Z,13.78
2019-04-28T05:54:33.618Z,15.70
2019-04-28T05:57:03.778Z,16.30
2019-04-28T05:59:42.843Z,17.23
2019-04-28T06:02:13.011Z,17.12
2019-04-28T06:04:41.507Z,20.90
2019-04-28T06:07:11.684Z,22.35
2019-04-28T06:09:41.847Z,23.95
2019-04-28T06:12:11.946Z,20.15
2019-04-28T06:14:40.409Z,22.82
2019-04-28T06:17:10.713Z,21.50
2019-04-28T06:19:40.277Z,19.62
2019-04-28T06:22:08.976Z,25.20
2019-04-28T06:24:37.429Z,27.37
2019-04-28T06:27:05.874Z,23.07
2019-04-28T06:29:34.376Z,19.32
2019-04-28T06:32:02.902Z,22.20
2019-04-28T06:34:31.878Z,21.75
2019-04-28T06:37:00.403Z,20.62
2019-04-28T06:39:28.893Z,20.80
2019-04-28T06:41:57.525Z,23.62
2019-04-28T06:44:26.022Z,19.37
2019-04-28T06:46:54.486Z,19.75
2019-04-28T06:49:22.994Z,18.45
2019-04-28T06:51:51.442Z,17.55
2019-04-28T06:54:19.912Z,21.52
2019-04-28T06:56:48.423Z,18.32
2019-04-28T06:59:16.879Z,21.52
2019-04-28T07:01:45.335Z,21.05
2019-04-28T07:04:13.859Z,21.02
2019-04-28T07:06:42.307Z,20.52
2019-04-28T07:09:10.785Z,23.80
2019-04-28T07:11:39.405Z,24.57
2019-04-28T07:14:07.920Z,22.40
2019-04-28T07:16:36.383Z,22.93
2019-04-28T08:53:03.859Z,15.13
2019-04-28T08:55:32.388Z,11.40
2019-04-28T08:58:00.871Z,8.70
2019-04-28T09:00:29.407Z,7.75
2019-04-28T09:02:57.869Z,10.60
2019-04-28T09:05:26.331Z,9.60
2019-04-28T09:07:54.899Z,8.80
2019-04-28T09:10:23.446Z,9.38
2019-04-28T09:12:51.945Z,9.85
2019-04-28T09:15:20.404Z,9.55
2019-04-28T09:17:48.932Z,9.30
2019-04-28T09:20:17.508Z,9.88
2019-04-28T09:22:46.031Z,9.28
2019-04-28T09:25:14.532Z,8.83
2019-04-28T09:27:43.070Z,11.22
2019-04-28T09:30:11.969Z,12.00
2019-04-28T09:32:40.427Z,11.78
2019-04-28T09:35:09.156Z,9.80
2019-04-28T09:37:37.695Z,10.08
2019-04-28T09:40:08.396Z,9.83
2019-04-28T09:42:41.140Z,10.93
2019-04-28T09:45:23.370Z,9.98
2019-04-28T09:47:51.824Z,10.50
2019-04-28T09:50:20.350Z,10.10
2019-04-28T09:52:49.007Z,10.68
2019-04-28T09:55:17.610Z,10.05
2019-04-28T09:57:46.064Z,8.43
2019-04-28T10:00:15.141Z,9.95
2019-04-28T10:02:43.595Z,9.23
2019-04-28T10:05:12.424Z,7.37
2019-04-28T10:07:41.039Z,9.30
2019-04-28T10:10:11.111Z,7.42
2019-04-28T10:12:39.566Z,7.70
2019-04-28T10:15:09.090Z,6.17
2019-04-28T10:17:37.882Z,8.50
2019-04-28T10:20:07.533Z,7.28
2019-04-28T10:22:36.640Z,10.63
2019-04-28T10:25:09.373Z,5.83
2019-04-28T10:27:37.879Z,6.00
2019-04-28T10:30:09.027Z,5.30
2019-04-28T10:32:37.479Z,7.35
2019-04-28T10:35:08.908Z,5.95
2019-04-28T10:37:37.536Z,6.78
2019-04-28T10:40:09.485Z,9.45
2019-04-28T10:42:37.977Z,5.00
2019-04-28T10:45:08.917Z,9.50
2019-04-28T10:47:37.519Z,6.47
2019-04-28T10:50:06.487Z,5.20
2019-04-28T10:52:34.950Z,5.70
2019-04-28T10:55:04.440Z,7.22
2019-04-28T10:57:32.963Z,7.75
2019-04-28T11:00:01.483Z,4.80
2019-04-28T11:02:30.075Z,8.98
2019-04-28T11:05:08.552Z,5.17
2019-04-28T11:07:36.379Z,4.78
2019-04-28T11:10:08.902Z,7.85
2019-04-28T11:12:37.390Z,6.28
2019-04-28T11:15:08.919Z,3.30
2019-04-28T11:17:37.432Z,3.90
2019-04-28T11:20:06.125Z,4.33
2019-04-28T11:22:34.610Z,5.50
2019-04-28T11:25:03.636Z,7.45
2019-04-28T11:27:32.223Z,6.28
2019-04-28T11:30:00.678Z,5.35
2019-04-28T11:32:29.346Z,4.83
2019-04-28T11:35:02.616Z,6.05
2019-04-28T11:37:31.112Z,8.48
2019-04-28T11:39:59.631Z,6.65
2019-04-28T11:42:28.164Z,7.45
2019-04-28T11:44:56.695Z,8.10
2019-04-28T11:47:25.215Z,5.47
2019-04-28T11:49:53.698Z,4.22
2019-04-28T11:52:22.166Z,7.00
2019-04-28T11:54:50.840Z,4.90
2019-04-28T11:57:19.359Z,4.95
2019-04-28T11:59:47.818Z,5.50
2019-04-28T12:02:16.323Z,6.37
2019-04-28T12:04:44.811Z,7.33
2019-04-28T12:07:13.277Z,6.50
2019-04-28T12:09:45.955Z,6.80
2019-04-28T12:12:16.367Z,4.40
2019-04-28T12:17:42.868Z,3.27
2019-04-28T12:20:13.132Z,5.70
2019-04-28T12:25:09.592Z,5.92
2019-04-28T12:27:38.050Z,5.83
2019-04-28T12:30:06.743Z,4.80
2019-04-28T12:32:35.239Z,4.08
2019-04-28T12:35:04.742Z,5.70
2019-04-28T12:37:33.267Z,4.45
2019-04-28T12:40:01.724Z,5.20
2019-04-28T12:45:06.455Z,3.47
2019-04-28T12:47:34.939Z,5.72
2019-04-28T12:50:18.798Z,3.02
2019-04-28T12:52:47.260Z,3.05
2019-04-28T12:55:15.832Z,4.40
2019-04-28T12:57:44.366Z,2.30
2019-04-28T13:00:33.804Z,2.55
2019-04-28T13:03:15.787Z,5.05
2019-04-28T13:05:46.233Z,2.67
2019-04-28T13:10:42.498Z,2.90
2019-04-28T13:13:10.989Z,3.92
2019-04-28T13:15:39.588Z,5.33
2019-04-28T13:18:08.108Z,3.15
2019-04-28T13:20:36.898Z,3.52
2019-04-28T13:23:05.402Z,3.60
2019-04-28T13:25:33.984Z,5.05
2019-04-28T13:28:02.505Z,3.80
2019-04-28T13:30:31.087Z,5.20
2019-04-28T13:32:59.620Z,3.77
2019-04-28T13:35:28.895Z,4.08
2019-04-28T13:37:57.390Z,2.92
2019-04-28T13:40:30.569Z,4.37
2019-04-28T13:42:59.093Z,3.05
2019-04-28T13:45:28.634Z,3.47
2019-04-28T13:47:57.431Z,4.23
2019-04-28T13:50:28.863Z,3.20
2019-04-28T13:52:57.392Z,5.10
2019-04-28T13:55:30.265Z,6.42
2019-04-28T13:58:00.437Z,3.72
2019-04-28T14:00:36.447Z,2.85
2019-04-28T14:03:07.461Z,2.52
2019-04-28T14:05:37.873Z,2.77
2019-04-28T14:08:06.483Z,3.42
2019-04-28T14:10:34.989Z,2.25
2019-04-28T14:13:03.641Z,3.50
2019-04-28T14:15:32.311Z,3.30
2019-04-28T14:18:00.838Z,3.52
2019-04-28T14:20:29.407Z,5.00
2019-04-28T14:22:57.891Z,5.72
2019-04-28T14:25:26.354Z,3.62
2019-04-28T14:27:54.925Z,2.42
2019-04-28T14:30:23.582Z,2.85
2019-04-28T14:32:52.401Z,1.67
2019-04-28T14:35:21.200Z,2.05
2019-04-28T14:37:49.739Z,3.65
2019-04-28T14:40:18.201Z,2.20
2019-04-28T14:42:46.678Z,2.50
2019-04-28T14:45:17.031Z,3.62
2019-04-28T14:50:13.805Z,1.87
2019-04-28T14:52:42.978Z,2.47
2019-04-28T14:55:11.684Z,2.55
2019-04-28T14:57:40.209Z,3.08
2019-04-28T15:00:10.940Z,4.72
2019-04-28T15:02:50.064Z,2.17
2019-04-28T15:05:20.222Z,2.65
2019-04-28T15:07:50.372Z,2.27
2019-04-28T15:10:20.803Z,2.05
2019-04-28T15:15:19.878Z,2.30
2019-04-28T15:17:47.263Z,1.87
2019-04-28T15:20:15.857Z,3.40
2019-04-28T15:22:44.387Z,1.98
2019-04-28T15:25:13.181Z,2.08
2019-04-28T15:27:41.663Z,3.15
2019-04-28T15:30:10.390Z,1.62
2019-04-28T15:32:38.947Z,4.62
2019-04-28T15:35:07.567Z,1.80
2019-04-28T15:37:36.078Z,2.15
2019-04-28T15:40:07.470Z,2.33
2019-04-28T15:42:35.954Z,2.05
2019-04-28T15:45:06.109Z,1.27
2019-04-28T15:47:34.631Z,1.98
2019-04-28T15:50:04.029Z,1.82
2019-04-28T15:52:32.554Z,0.87
2019-04-28T15:55:01.716Z,1.55
2019-04-28T15:57:30.173Z,2.62
2019-04-28T15:59:58.638Z,1.20
2019-04-28T16:02:27.191Z,2.52
2019-04-28T16:04:55.687Z,1.82
2019-04-28T16:07:25.328Z,3.20
2019-04-28T16:09:54.033Z,2.62
2019-04-28T16:12:22.489Z,2.50
2019-04-28T16:14:51.007Z,3.90
2019-04-28T16:17:20.095Z,2.33
2019-04-28T16:19:48.687Z,1.05
2019-04-28T16:22:17.211Z,3.00
2019-04-28T16:24:45.673Z,2.08
2019-04-28T16:27:14.292Z,2.92
2019-04-28T16:29:42.738Z,1.55
2019-04-28T16:32:11.424Z,2.37
2019-04-28T16:34:39.990Z,2.08
2019-04-28T16:37:08.604Z,2.25
2019-04-28T16:39:37.178Z,1.20
2019-04-28T16:42:05.738Z,1.35
2019-04-28T16:44:34.226Z,1.27
2019-04-28T16:47:02.699Z,1.57
2019-04-28T16:49:31.224Z,2.05
2019-04-28T16:51:59.691Z,4.70
2019-04-28T16:54:28.138Z,7.67
2019-04-28T16:57:13.107Z,4.47
2019-04-28T16:59:43.268Z,3.75
2019-04-28T17:02:13.362Z,3.10
2019-04-28T17:04:41.884Z,1.75
2019-04-28T17:07:10.484Z,3.83
2019-04-28T17:09:39.013Z,3.47
2019-04-28T17:12:07.657Z,6.53
2019-04-28T17:14:36.212Z,1.87
2019-04-28T17:17:04.950Z,3.47
2019-04-28T17:19:33.411Z,3.02
2019-04-28T17:22:01.905Z,2.67
2019-04-28T17:24:30.431Z,3.00
2019-04-28T17:26:58.944Z,2.42
2019-04-28T17:29:27.403Z,2.37
2019-04-28T17:31:55.855Z,2.80
2019-04-28T17:34:24.375Z,3.33
2019-04-28T17:36:52.840Z,10.40
2019-04-28T17:39:23.036Z,11.08
2019-04-28T17:41:51.767Z,13.43
2019-04-28T17:44:20.314Z,2.67
2019-04-28T17:46:48.840Z,5.50
2019-04-28T17:49:19.011Z,2.45
2019-04-28T17:51:47.547Z,3.35
2019-04-28T17:54:16.076Z,6.83
2019-04-28T17:56:44.660Z,5.17
2019-04-28T17:59:13.191Z,2.85
2019-04-28T18:01:46.287Z,8.70
2019-04-28T18:04:16.386Z,5.35
2019-04-28T18:06:49.419Z,1.62
2019-04-28T18:09:18.779Z,2.60
2019-04-28T18:11:47.502Z,1.60
2019-04-28T18:14:16.039Z,1.50
2019-04-28T18:17:01.511Z,1.77
2019-04-28T18:19:30.371Z,2.87
2019-04-28T18:21:58.903Z,1.82
2019-04-28T18:24:27.406Z,1.25
2019-04-28T18:26:55.850Z,3.00
2019-04-28T18:29:24.311Z,2.85
2019-04-28T18:31:54.443Z,2.52
2019-04-28T18:34:24.531Z,1.27
2019-04-28T18:37:30.438Z,1.60
2019-04-28T18:40:06.199Z,1.98
2019-04-28T18:42:39.262Z,2.70
2019-04-28T18:45:07.889Z,3.25
2019-04-28T18:47:36.410Z,2.42
2019-04-28T18:50:06.618Z,1.55
2019-04-28T18:52:35.739Z,2.75
2019-04-28T18:55:08.310Z,3.10
2019-04-28T18:57:36.891Z,1.55
2019-04-28T19:00:06.872Z,1.65
2019-04-28T19:02:43.317Z,3.25
2019-04-28T19:05:12.198Z,2.20
2019-04-28T19:07:48.583Z,2.75
2019-04-28T19:10:21.779Z,3.37
2019-04-28T19:13:03.860Z,2.10
2019-04-28T19:15:42.939Z,2.17
2019-04-28T19:18:15.808Z,1.22
2019-04-28T19:20:44.345Z,7.72
2019-04-28T19:23:12.871Z,2.02
2019-04-28T19:25:41.378Z,3.10
2019-04-28T19:28:09.842Z,2.35
2019-04-28T19:30:38.846Z,3.42
2019-04-28T19:33:07.520Z,5.17
2019-04-28T19:35:35.980Z,2.90
2019-04-28T19:38:04.426Z,4.87
2019-04-28T19:40:33.000Z,2.10
2019-04-28T19:43:01.447Z,1.85
2019-04-28T19:45:31.316Z,3.08
2019-04-28T19:48:00.056Z,4.40
2019-04-28T19:50:28.574Z,2.98
2019-04-28T19:52:57.031Z,3.25
2019-04-28T19:55:30.193Z,2.15
2019-04-28T19:58:03.412Z,5.30
2019-04-28T20:00:39.672Z,3.92
2019-04-28T20:03:08.140Z,5.45
2019-04-28T20:05:36.639Z,2.58
2019-04-28T20:08:05.172Z,2.45
2019-04-28T20:10:33.627Z,2.55
2019-04-28T20:13:02.265Z,3.00
2019-04-28T20:15:30.868Z,3.37
2019-04-28T20:17:59.323Z,3.73
2019-04-28T20:20:27.825Z,2.95
2019-04-28T20:22:56.383Z,2.08
2019-04-28T20:25:24.892Z,3.77
2019-04-28T20:27:53.343Z,4.50
2019-04-28T20:30:21.790Z,2.90
2019-04-28T20:32:50.287Z,4.65
2019-04-28T20:35:26.354Z,3.50
2019-04-28T20:37:56.595Z,2.65
2019-04-28T20:40:26.691Z,4.50
2019-04-28T20:43:01.887Z,3.00
2019-04-28T20:45:29.679Z,4.67
2019-04-28T20:47:58.135Z,2.33
2019-04-28T20:50:26.629Z,3.22
2019-04-28T20:52:55.110Z,5.42
2019-04-28T20:55:23.567Z,5.28
2019-04-28T20:57:52.089Z,2.33
2019-04-28T21:00:20.606Z,3.58
2019-04-28T21:02:49.132Z,2.67
2019-04-28T21:05:17.588Z,4.55
2019-04-28T21:07:46.048Z,3.45
2019-04-28T21:10:14.769Z,4.15
2019-04-28T21:12:43.240Z,2.58
2019-04-28T21:15:11.925Z,3.50
2019-04-28T21:17:40.496Z,4.17
2019-04-28T21:20:10.629Z,5.00
2019-04-28T21:22:39.198Z,4.78
2019-04-28T21:25:07.823Z,4.10
2019-04-28T21:27:36.350Z,5.00
2019-04-28T21:30:05.742Z,4.15
2019-04-28T21:32:34.200Z,5.72
2019-04-28T21:35:02.692Z,5.25
2019-04-28T21:37:31.144Z,4.40
2019-04-28T21:39:59.639Z,4.42
2019-04-28T21:42:29.821Z,3.52
2019-04-28T21:45:03.285Z,5.95
2019-04-28T21:47:36.298Z,3.65
2019-04-28T21:50:06.896Z,6.65
2019-04-28T21:52:35.409Z,3.90
2019-04-28T21:55:05.331Z,4.87
2019-04-28T21:57:34.135Z,4.42
2019-04-28T22:02:37.178Z,4.92
2019-04-28T22:05:06.979Z,5.47
2019-04-28T22:07:35.501Z,4.70
2019-04-28T22:10:06.103Z,4.25
2019-04-28T22:15:02.400Z,4.55
2019-04-28T22:17:30.854Z,4.72
2019-04-28T22:19:59.308Z,4.10
2019-04-28T22:22:30.375Z,4.42
2019-04-28T22:25:00.512Z,6.40
2019-04-28T22:27:30.602Z,4.08
2019-04-28T22:29:59.106Z,5.25
2019-04-28T22:32:27.633Z,5.40
2019-04-28T22:34:56.203Z,7.65
2019-04-28T22:37:24.727Z,5.72
2019-04-28T22:39:53.246Z,6.17
2019-04-28T22:42:22.004Z,6.58
2019-04-28T22:44:50.446Z,7.12
2019-04-28T22:47:18.930Z,5.80
2019-04-28T22:49:47.388Z,6.37
2019-04-28T22:52:15.875Z,7.33
2019-04-28T22:54:49.092Z,6.78
2019-04-28T22:57:35.567Z,5.65
2019-04-28T23:00:07.763Z,7.92
2019-04-28T23:02:36.279Z,6.62
2019-04-28T23:05:08.344Z,5.65
2019-04-28T23:07:36.863Z,6.30
2019-04-28T23:10:07.065Z,7.22
2019-04-28T23:12:35.551Z,8.73
2019-04-28T23:15:06.422Z,8.05
2019-04-28T23:17:34.912Z,6.15
2019-04-28T23:20:04.842Z,6.08
2019-04-28T23:22:46.613Z,7.97
2019-04-28T23:25:08.699Z,6.15
2019-04-28T23:27:37.194Z,8.75
2019-04-28T23:30:07.659Z,7.30
2019-04-28T23:35:04.867Z,7.40
2019-04-28T23:37:33.400Z,9.95
2019-04-28T23:40:01.861Z,9.85
2019-04-28T23:42:32.062Z,7.58
2019-04-28T23:45:00.607Z,10.80
2019-04-28T23:47:29.103Z,8.80
2019-04-28T23:49:57.759Z,8.10
2019-04-28T23:52:33.585Z,6.87
2019-04-28T23:55:04.246Z,9.08
2019-04-28T23:57:32.732Z,8.68
